19.8°F
Current conditions from King Hill
Updated every 5 minutes
 
  Friday November 28, 2014

Observations for Westford

Westford

44° 37' 39"N, 73° 02' 29"W, Elevation 850 ft.
Eastern Time

Hourly observations for the last 72 hours

Date Time Temperature (F) Humi-
dity

(%)
Wind
(mph)
Pressure Rain (in)
Air Dew 6 Hour 1 Hr 3 Hr 6 Hr Day
Alt
(in)
Sea
Level

(mb)
Max Min
28 20:00 19.8 15.5 83 WNW 1 G 6 30.15 1021.2 0.00
28 19:00 20.6 16.5 24.4 20.4 84 NW 1 G 4 30.15 1020.9 0.00
28 18:00 20.4 17.2 87 Calm 30.14 1020.6 0.00
28 17:00 21.2 17.4 85 Calm 30.12 1020.0 0.00
28 16:00 21.7 17.3 83 Calm 30.10 1019.4 0.00
28 15:00 23.1 17.0 77 W 0 G 3 30.08 1018.8 0.00
28 14:00 22.3 19.6 89 Calm 30.07 1018.4 0.00
28 13:00 24.3 17.8 25.1 21.7 76 W 0 G 13 30.06 1017.9 0.00
28 12:00 24.2 18.0 77 SSW 0 G 6 30.07 1018.2 0.00
28 11:00 23.4 17.6 78 NNW 0 G 4 30.08 1018.5 0.00
28 10:00 23.2 17.4 78 WNW 1 G 8 30.09 1018.9 0.00
28 09:00 22.6 17.7 81 NW 2 G 5 30.07 1018.4 0.00
28 08:00 22.2 17.5 82 W 3 G 8 30.06 1018.0 0.00
28 07:00 22.6 21.1 22.7 20.2 94 W 2 G 6 30.05 1017.6 0.00
28 06:00 22.0 20.8 95 Calm 30.03 1017.1 0.00
28 05:00 21.2 20.0 95 Calm 30.02 1016.5 0.00
28 04:00 20.7 19.5 95 Calm 30.01 1016.2 0.00
28 03:00 20.6 19.1 94 Calm 30.01 1016.2 0.00
28 02:00 21.2 19.5 93 Calm 30.00 1016.1 0.00
28 01:00 22.2 20.5 23.4 21.6 93 Calm 30.00 1016.0 0.00
28 00:00 22.4 20.4 92 Calm 30.01 1016.3 0.00
27 23:00 22.4 20.4 92 Calm 30.01 1016.4 0.00
27 22:00 21.8 19.6 91 Calm 30.02 1016.5 0.00
27 21:00 22.4 19.7 89 Calm 30.02 1016.6 0.00
27 20:00 23.3 20.0 87 Calm 30.01 1016.4 0.00
27 19:00 23.4 19.6 27.5 23.4 85 Calm 30.00 1016.1 0.00
27 18:00 23.8 20.5 87 Calm 30.00 1016.1 0.00
27 17:00 24.2 21.2 88 Calm 30.00 1016.1 0.00
27 16:00 25.0 21.1 85 Calm 30.00 1016.0 0.00
27 15:00 25.9 21.7 84 Calm 30.00 1015.9 0.00
27 14:00 27.3 22.2 81 Calm 29.99 1015.7 0.00
27 13:00 27.2 22.4 27.4 20.9 82 Calm 29.99 1015.4 0.00
27 12:00 27.2 23.3 85 Calm 29.99 1015.5 0.00
27 11:00 26.6 23.3 87 N 0 G 3 30.00 1015.9 0.00
27 10:00 25.8 23.5 91 Calm 29.99 1015.6 0.00
27 09:00 24.6 22.9 93 Calm 29.98 1015.2 0.00
27 08:00 22.5 21.0 94 Calm 29.96 1014.6 0.00
27 07:00 21.5 19.8 26.3 21.5 93 Calm 29.94 1014.0 0.00
27 06:00 23.0 21.5 94 NNE 0 G 5 29.92 1013.4 0.00
27 05:00 23.7 22.2 94 N 0 G 3 29.91 1012.9 0.00
27 04:00 24.7 23.2 94 NNE 0 G 4 29.90 1012.6 0.00
27 03:00 25.7 24.5 95 NNE 0 G 5 29.90 1012.7 0.00
27 02:00 26.2 25.0 95 Calm 29.91 1012.9 0.00
27 01:00 26.3 25.1 27.3 26.3 95 N 1 G 4 29.89 1012.4 0.00
27 00:00 26.3 25.1 95 N 0 G 10 29.91 1012.9 0.00
26 23:00 26.5 25.3 95 NNE 0 G 8 29.93 1013.5 0.00
26 22:00 26.7 25.5 95 N 1 G 6 29.95 1014.1 0.00
26 21:00 26.8 25.6 95 NE 0 G 4 29.97 1015.0 0.00
26 20:00 27.0 25.8 95 N 1 G 13 29.98 1015.4 0.00
26 19:00 27.2 26.0 30.9 27.1 95 N 1 G 5 30.00 1016.1 0.00
26 18:00 27.2 25.7 94 N 0 G 6 30.03 1016.9 0.00
26 17:00 27.4 25.9 94 NNW 0 G 5 30.05 1017.6 0.00
26 16:00 27.5 25.7 93 N 0 G 2 30.06 1017.9 0.00
26 15:00 28.4 25.8 90 Calm 30.09 1019.1 0.00
26 14:00 30.4 23.7 76 NNE 0 G 1 30.10 1019.3 0.00
26 13:00 30.8 22.2 32.5 30.4 70 Calm 30.11 1019.8 0.00
26 12:00 30.6 22.0 70 NNE 0 G 2 30.14 1020.7 0.00
26 11:00 30.5 21.2 68 NNE 1 G 4 30.15 1020.9 0.00
26 10:00 31.1 22.5 70 N 1 G 5 30.19 1022.4 0.00
26 09:00 31.7 24.7 75 NE 0 G 3 30.21 1023.0 0.00
26 08:00 32.3 25.3 75 Calm 30.19 1022.4 0.00
26 07:00 32.0 25.0 36.0 32.0 75 Calm 30.17 1021.6 0.00
26 06:00 32.4 24.4 72 Calm 30.17 1021.7 0.00
26 05:00 32.9 24.2 70 Calm 30.18 1022.0 0.00
26 04:00 33.2 23.8 68 W 0 G 7 30.16 1021.5 0.00
26 03:00 33.4 23.6 67 W 1 G 7 30.15 1021.0 0.00
26 02:00 34.4 23.9 65 WNW 1 G 9 30.12 1019.9 0.00
26 01:00 36.0 24.6 42.1 36.0 63 WNW 14 G 25 30.10 1019.4 0.00
26 00:00 37.1 28.2 70 W 4 G 11 30.09 1018.9 0.00
25 23:00 37.4 30.5 76 WSW 3 G 10 30.05 1017.7 0.00
25 22:00 39.0 31.1 73 W 4 G 12 30.00 1016.1 0.00
25 21:00 39.7 30.7 70 W 7 G 16 29.97 1014.9 0.00

Data generated by WxSolution Version 1.8.7.2, Build 2014.02.15.


 
 
Current Radar Loop:

Copyright © WestfordWeather.net 2007-2014. All rights reserved.